sensor_id;sensor_type;location;lat;lon;timestamp;temperature;humidity
4693;DHT22;11710;48.024;16.296;2023-04-22T11:17:25;18.30;71.50
4693;DHT22;11710;48.024;16.296;2023-04-22T11:19:53;21.50;73.10
4693;DHT22;11710;48.024;16.296;2023-04-22T11:22:22;21.30;73.80
4693;DHT22;11710;48.024;16.296;2023-04-22T11:24:53;21.30;73.30
4693;DHT22;11710;48.024;16.296;2023-04-22T11:27:21;21.10;70.30
4693;DHT22;11710;48.024;16.296;2023-04-22T11:30:03;21.00;74.00
4693;DHT22;11710;48.024;16.296;2023-04-22T11:32:33;21.30;72.50
4693;DHT22;11710;48.024;16.296;2023-04-22T11:35:03;21.20;71.80
4693;DHT22;11710;48.024;16.296;2023-04-22T11:37:31;21.30;71.10
4693;DHT22;11710;48.024;16.296;2023-04-22T11:40:07;21.50;70.50
4693;DHT22;11710;48.024;16.296;2023-04-22T11:42:35;21.20;70.20
4693;DHT22;11710;48.024;16.296;2023-04-22T11:45:05;21.40;69.70
4693;DHT22;11710;48.024;16.296;2023-04-22T11:47:33;21.70;68.80
4693;DHT22;11710;48.024;16.296;2023-04-22T11:50:02;21.60;68.50
4693;DHT22;11710;48.024;16.296;2023-04-22T11:52:46;21.40;69.10
4693;DHT22;11710;48.024;16.296;2023-04-22T11:55:15;21.30;68.80
4693;DHT22;11710;48.024;16.296;2023-04-22T11:57:50;21.40;69.50
4693;DHT22;11710;48.024;16.296;2023-04-22T12:00:19;21.50;68.20
4693;DHT22;11710;48.024;16.296;2023-04-22T12:03:01;21.50;69.00
4693;DHT22;11710;48.024;16.296;2023-04-22T12:05:36;21.50;69.80
4693;DHT22;11710;48.024;16.296;2023-04-22T12:08:07;21.60;68.60
4693;DHT22;11710;48.024;16.296;2023-04-22T12:10:43;21.80;68.70
4693;DHT22;11710;48.024;16.296;2023-04-22T12:13:17;21.60;69.00
4693;DHT22;11710;48.024;16.296;2023-04-22T12:15:47;21.50;68.90
4693;DHT22;11710;48.024;16.296;2023-04-22T12:18:14;21.50;69.00
4693;DHT22;11710;48.024;16.296;2023-04-22T12:20:42;21.70;70.50
4693;DHT22;11710;48.024;16.296;2023-04-22T12:23:13;21.50;68.70
4693;DHT22;11710;48.024;16.296;2023-04-22T12:25:41;21.30;69.60
4693;DHT22;11710;48.024;16.296;2023-04-22T12:28:09;21.40;70.30
4693;DHT22;11710;48.024;16.296;2023-04-22T12:30:37;21.50;69.50
4693;DHT22;11710;48.024;16.296;2023-04-22T12:33:06;21.40;69.00
4693;DHT22;11710;48.024;16.296;2023-04-22T12:35:34;21.40;71.00
4693;DHT22;11710;48.024;16.296;2023-04-22T12:38:01;21.40;69.60
4693;DHT22;11710;48.024;16.296;2023-04-22T12:40:28;21.20;68.10
4693;DHT22;11710;48.024;16.296;2023-04-22T12:42:55;21.10;68.60
4693;DHT22;11710;48.024;16.296;2023-04-22T12:45:22;21.20;68.80
4693;DHT22;11710;48.024;16.296;2023-04-22T12:47:50;21.40;68.30
4693;DHT22;11710;48.024;16.296;2023-04-22T12:50:21;21.40;68.80
4693;DHT22;11710;48.024;16.296;2023-04-22T12:52:48;21.60;69.10
4693;DHT22;11710;48.024;16.296;2023-04-22T12:55:16;21.60;67.90
4693;DHT22;11710;48.024;16.296;2023-04-22T12:57:48;21.40;68.10
4693;DHT22;11710;48.024;16.296;2023-04-22T13:00:15;21.30;68.30
4693;DHT22;11710;48.024;16.296;2023-04-22T13:02:46;21.40;70.50
4693;DHT22;11710;48.024;16.296;2023-04-22T13:05:14;21.30;69.80
4693;DHT22;11710;48.024;16.296;2023-04-22T13:07:43;21.50;69.80
4693;DHT22;11710;48.024;16.296;2023-04-22T13:10:12;21.70;70.40
4693;DHT22;11710;48.024;16.296;2023-04-22T13:12:40;21.80;69.80
4693;DHT22;11710;48.024;16.296;2023-04-22T13:15:09;21.80;69.00
4693;DHT22;11710;48.024;16.296;2023-04-22T13:17:37;21.50;68.80
4693;DHT22;11710;48.024;16.296;2023-04-22T13:20:06;21.50;71.30
4693;DHT22;11710;48.024;16.296;2023-04-22T13:22:34;21.60;69.60
4693;DHT22;11710;48.024;16.296;2023-04-22T13:25:04;21.60;69.40
4693;DHT22;11710;48.024;16.296;2023-04-22T13:27:31;21.70;70.20
4693;DHT22;11710;48.024;16.296;2023-04-22T13:29:58;21.70;68.00
4693;DHT22;11710;48.024;16.296;2023-04-22T13:32:26;21.60;69.60
4693;DHT22;11710;48.024;16.296;2023-04-22T13:34:53;21.60;69.40
4693;DHT22;11710;48.024;16.296;2023-04-22T13:37:20;21.40;69.20
4693;DHT22;11710;48.024;16.296;2023-04-22T13:39:47;21.40;70.00
4693;DHT22;11710;48.024;16.296;2023-04-22T13:44:46;21.40;70.80
4693;DHT22;11710;48.024;16.296;2023-04-22T13:47:13;21.40;69.40
4693;DHT22;11710;48.024;16.296;2023-04-22T13:49:40;21.40;70.30
4693;DHT22;11710;48.024;16.296;2023-04-22T13:52:07;21.50;70.70
4693;DHT22;11710;48.024;16.296;2023-04-22T13:54:35;21.40;68.90
4693;DHT22;11710;48.024;16.296;2023-04-22T13:57:02;21.50;70.70
4693;DHT22;11710;48.024;16.296;2023-04-22T13:59:34;21.60;69.80
4693;DHT22;11710;48.024;16.296;2023-04-22T14:02:01;21.40;69.40
4693;DHT22;11710;48.024;16.296;2023-04-22T14:04:29;21.40;68.60
4693;DHT22;11710;48.024;16.296;2023-04-22T14:06:56;21.30;68.40
4693;DHT22;11710;48.024;16.296;2023-04-22T14:09:23;21.40;70.10
4693;DHT22;11710;48.024;16.296;2023-04-22T14:11:51;21.40;69.10
4693;DHT22;11710;48.024;16.296;2023-04-22T14:14:18;21.30;68.80
4693;DHT22;11710;48.024;16.296;2023-04-22T14:16:47;21.40;68.00
4693;DHT22;11710;48.024;16.296;2023-04-22T14:19:14;21.60;69.40
4693;DHT22;11710;48.024;16.296;2023-04-22T14:21:41;21.70;69.60
4693;DHT22;11710;48.024;16.296;2023-04-22T14:24:08;21.50;68.70
4693;DHT22;11710;48.024;16.296;2023-04-22T14:26:35;21.60;69.50
4693;DHT22;11710;48.024;16.296;2023-04-22T14:29:02;21.60;68.90
4693;DHT22;11710;48.024;16.296;2023-04-22T14:31:30;21.50;68.50
4693;DHT22;11710;48.024;16.296;2023-04-22T14:33:59;21.40;68.90
4693;DHT22;11710;48.024;16.296;2023-04-22T14:36:26;21.40;68.10
4693;DHT22;11710;48.024;16.296;2023-04-22T14:38:53;21.30;68.80
4693;DHT22;11710;48.024;16.296;2023-04-22T14:41:21;21.40;69.80
4693;DHT22;11710;48.024;16.296;2023-04-22T14:43:48;21.40;68.10
4693;DHT22;11710;48.024;16.296;2023-04-22T14:46:15;21.40;68.60
4693;DHT22;11710;48.024;16.296;2023-04-22T14:48:42;21.50;68.80
4693;DHT22;11710;48.024;16.296;2023-04-22T14:51:11;21.60;70.20
4693;DHT22;11710;48.024;16.296;2023-04-22T14:53:38;21.60;69.00
4693;DHT22;11710;48.024;16.296;2023-04-22T14:56:06;21.40;67.90
4693;DHT22;11710;48.024;16.296;2023-04-22T14:58:33;21.40;68.30
4693;DHT22;11710;48.024;16.296;2023-04-22T15:01:00;21.40;68.10
4693;DHT22;11710;48.024;16.296;2023-04-22T15:03:27;21.40;68.30
4693;DHT22;11710;48.024;16.296;2023-04-22T15:05:55;21.50;68.80
4693;DHT22;11710;48.024;16.296;2023-04-22T15:08:24;21.40;67.60
4693;DHT22;11710;48.024;16.296;2023-04-22T15:10:51;21.30;67.70
4693;DHT22;11710;48.024;16.296;2023-04-22T15:13:18;21.30;69.20
4693;DHT22;11710;48.024;16.296;2023-04-22T15:15:45;21.30;68.40
4693;DHT22;11710;48.024;16.296;2023-04-22T15:18:13;21.20;68.70
4693;DHT22;11710;48.024;16.296;2023-04-22T15:20:40;21.20;69.40
4693;DHT22;11710;48.024;16.296;2023-04-22T15:23:07;21.30;69.60
4693;DHT22;11710;48.024;16.296;2023-04-22T15:25:36;21.30;69.70
4693;DHT22;11710;48.024;16.296;2023-04-22T15:28:03;21.40;68.80
4693;DHT22;11710;48.024;16.296;2023-04-22T15:30:30;21.40;69.70
4693;DHT22;11710;48.024;16.296;2023-04-22T15:32:58;21.40;69.50
4693;DHT22;11710;48.024;16.296;2023-04-22T15:35:25;21.30;69.60
4693;DHT22;11710;48.024;16.296;2023-04-22T15:37:52;21.30;69.10
4693;DHT22;11710;48.024;16.296;2023-04-22T15:40:22;21.30;69.10
4693;DHT22;11710;48.024;16.296;2023-04-22T15:42:50;21.20;68.40
4693;DHT22;11710;48.024;16.296;2023-04-22T15:45:18;21.10;69.30
4693;DHT22;11710;48.024;16.296;2023-04-22T15:47:46;21.10;68.80
4693;DHT22;11710;48.024;16.296;2023-04-22T15:50:13;21.00;69.30
4693;DHT22;11710;48.024;16.296;2023-04-22T15:52:41;20.90;68.90
4693;DHT22;11710;48.024;16.296;2023-04-22T15:55:08;20.90;68.40
4693;DHT22;11710;48.024;16.296;2023-04-22T15:57:35;20.80;69.00
4693;DHT22;11710;48.024;16.296;2023-04-22T16:00:06;20.80;69.90
4693;DHT22;11710;48.024;16.296;2023-04-22T16:02:35;20.80;69.10
4693;DHT22;11710;48.024;16.296;2023-04-22T16:05:02;20.90;69.20
4693;DHT22;11710;48.024;16.296;2023-04-22T16:07:30;20.80;69.60
4693;DHT22;11710;48.024;16.296;2023-04-22T16:09:57;20.80;70.10
4693;DHT22;11710;48.024;16.296;2023-04-22T16:12:24;20.80;69.50
4693;DHT22;11710;48.024;16.296;2023-04-22T16:14:51;20.80;69.40
4693;DHT22;11710;48.024;16.296;2023-04-22T16:17:20;20.80;69.40
4693;DHT22;11710;48.024;16.296;2023-04-22T16:19:48;20.70;70.00
4693;DHT22;11710;48.024;16.296;2023-04-22T16:22:15;20.70;70.40
4693;DHT22;11710;48.024;16.296;2023-04-22T16:24:42;20.70;70.80
4693;DHT22;11710;48.024;16.296;2023-04-22T16:27:09;20.60;69.50
4693;DHT22;11710;48.024;16.296;2023-04-22T16:29:40;20.50;69.60
4693;DHT22;11710;48.024;16.296;2023-04-22T16:32:08;20.50;70.00
4693;DHT22;11710;48.024;16.296;2023-04-22T16:34:36;20.40;70.30
4693;DHT22;11710;48.024;16.296;2023-04-22T16:37:04;20.40;70.30
4693;DHT22;11710;48.024;16.296;2023-04-22T16:39:31;20.40;70.10
4693;DHT22;11710;48.024;16.296;2023-04-22T16:41:58;20.30;71.00
4693;DHT22;11710;48.024;16.296;2023-04-22T16:44:27;20.30;70.50
